sensor_id;sensor_type;location;lat;lon;timestamp;P1;durP1;ratioP1;P2;durP2;ratioP2
28714;SDS011;15886;49.170;14.572;2023-07-02T00:00:14;10.95;;;3.13;;
28714;SDS011;15886;49.170;14.572;2023-07-02T00:02:47;4.72;;;3.28;;
28714;SDS011;15886;49.170;14.572;2023-07-02T00:05:17;14.02;;;5.00;;
28714;SDS011;15886;49.170;14.572;2023-07-02T00:07:47;7.32;;;4.03;;
28714;SDS011;15886;49.170;14.572;2023-07-02T00:10:18;5.00;;;3.42;;
28714;SDS011;15886;49.170;14.572;2023-07-02T00:12:48;5.70;;;3.95;;
28714;SDS011;15886;49.170;14.572;2023-07-02T00:15:17;4.57;;;3.58;;
28714;SDS011;15886;49.170;14.572;2023-07-02T00:17:45;6.20;;;3.53;;
28714;SDS011;15886;49.170;14.572;2023-07-02T00:20:13;4.70;;;3.55;;
28714;SDS011;15886;49.170;14.572;2023-07-02T00:22:42;5.90;;;3.40;;
28714;SDS011;15886;49.170;14.572;2023-07-02T00:25:12;4.82;;;3.22;;
28714;SDS011;15886;49.170;14.572;2023-07-02T00:27:41;5.80;;;3.25;;
28714;SDS011;15886;49.170;14.572;2023-07-02T00:30:09;4.70;;;3.75;;
28714;SDS011;15886;49.170;14.572;2023-07-02T00:32:38;4.95;;;3.80;;
28714;SDS011;15886;49.170;14.572;2023-07-02T00:35:06;5.15;;;3.85;;
28714;SDS011;15886;49.170;14.572;2023-07-02T00:37:34;5.03;;;3.38;;
28714;SDS011;15886;49.170;14.572;2023-07-02T00:40:03;6.78;;;4.18;;
28714;SDS011;15886;49.170;14.572;2023-07-02T00:42:32;3.90;;;3.22;;
28714;SDS011;15886;49.170;14.572;2023-07-02T00:45:00;5.63;;;3.72;;
28714;SDS011;15886;49.170;14.572;2023-07-02T00:47:32;6.15;;;3.78;;
28714;SDS011;15886;49.170;14.572;2023-07-02T00:50:01;4.00;;;3.03;;
28714;SDS011;15886;49.170;14.572;2023-07-02T00:52:30;7.38;;;3.70;;
28714;SDS011;15886;49.170;14.572;2023-07-02T00:54:58;7.15;;;3.63;;
28714;SDS011;15886;49.170;14.572;2023-07-02T00:57:26;5.55;;;3.03;;
28714;SDS011;15886;49.170;14.572;2023-07-02T00:59:58;5.30;;;3.42;;
28714;SDS011;15886;49.170;14.572;2023-07-02T01:02:31;5.75;;;3.42;;
28714;SDS011;15886;49.170;14.572;2023-07-02T01:05:01;5.70;;;3.22;;
28714;SDS011;15886;49.170;14.572;2023-07-02T01:07:31;4.90;;;3.13;;
28714;SDS011;15886;49.170;14.572;2023-07-02T01:09:59;5.07;;;3.38;;
28714;SDS011;15886;49.170;14.572;2023-07-02T01:12:28;5.60;;;3.45;;
28714;SDS011;15886;49.170;14.572;2023-07-02T01:14:57;6.55;;;3.80;;
28714;SDS011;15886;49.170;14.572;2023-07-02T01:17:29;5.32;;;3.38;;
28714;SDS011;15886;49.170;14.572;2023-07-02T01:20:09;5.80;;;3.75;;
28714;SDS011;15886;49.170;14.572;2023-07-02T01:22:37;5.82;;;3.95;;
28714;SDS011;15886;49.170;14.572;2023-07-02T01:25:06;5.38;;;3.35;;
28714;SDS011;15886;49.170;14.572;2023-07-02T01:27:36;7.20;;;3.67;;
28714;SDS011;15886;49.170;14.572;2023-07-02T01:30:06;6.13;;;3.20;;
28714;SDS011;15886;49.170;14.572;2023-07-02T01:32:36;6.75;;;3.53;;
28714;SDS011;15886;49.170;14.572;2023-07-02T01:35:05;5.38;;;3.85;;
28714;SDS011;15886;49.170;14.572;2023-07-02T01:37:34;6.13;;;3.67;;
28714;SDS011;15886;49.170;14.572;2023-07-02T01:40:05;6.03;;;3.55;;
28714;SDS011;15886;49.170;14.572;2023-07-02T01:42:35;5.65;;;3.75;;
28714;SDS011;15886;49.170;14.572;2023-07-02T01:45:03;5.60;;;3.30;;
28714;SDS011;15886;49.170;14.572;2023-07-02T01:47:33;10.95;;;3.15;;
28714;SDS011;15886;49.170;14.572;2023-07-02T01:50:03;4.90;;;3.13;;
28714;SDS011;15886;49.170;14.572;2023-07-02T01:52:33;8.93;;;3.33;;
28714;SDS011;15886;49.170;14.572;2023-07-02T01:55:02;3.53;;;2.70;;
28714;SDS011;15886;49.170;14.572;2023-07-02T01:57:31;5.65;;;3.58;;
28714;SDS011;15886;49.170;14.572;2023-07-02T02:00:00;5.65;;;3.58;;
28714;SDS011;15886;49.170;14.572;2023-07-02T02:02:43;5.05;;;3.00;;
28714;SDS011;15886;49.170;14.572;2023-07-02T02:05:12;5.25;;;3.47;;
28714;SDS011;15886;49.170;14.572;2023-07-02T02:07:42;6.15;;;3.42;;
28714;SDS011;15886;49.170;14.572;2023-07-02T02:10:12;4.07;;;2.63;;
28714;SDS011;15886;49.170;14.572;2023-07-02T02:12:41;5.50;;;2.70;;
28714;SDS011;15886;49.170;14.572;2023-07-02T02:15:10;7.80;;;3.72;;
28714;SDS011;15886;49.170;14.572;2023-07-02T02:17:41;4.40;;;2.65;;
28714;SDS011;15886;49.170;14.572;2023-07-02T02:20:12;3.85;;;2.42;;
28714;SDS011;15886;49.170;14.572;2023-07-02T02:22:42;3.55;;;2.40;;
28714;SDS011;15886;49.170;14.572;2023-07-02T02:25:10;6.40;;;2.55;;
28714;SDS011;15886;49.170;14.572;2023-07-02T02:27:38;6.90;;;2.05;;
28714;SDS011;15886;49.170;14.572;2023-07-02T02:30:08;4.38;;;2.05;;
28714;SDS011;15886;49.170;14.572;2023-07-02T02:32:37;3.13;;;1.90;;
28714;SDS011;15886;49.170;14.572;2023-07-02T02:35:08;3.35;;;2.20;;
28714;SDS011;15886;49.170;14.572;2023-07-02T02:37:38;2.25;;;1.88;;
28714;SDS011;15886;49.170;14.572;2023-07-02T02:40:10;5.88;;;1.90;;
28714;SDS011;15886;49.170;14.572;2023-07-02T02:42:41;2.63;;;1.90;;
28714;SDS011;15886;49.170;14.572;2023-07-02T02:45:09;2.72;;;1.52;;
28714;SDS011;15886;49.170;14.572;2023-07-02T02:47:39;3.28;;;1.70;;
28714;SDS011;15886;49.170;14.572;2023-07-02T02:50:08;2.72;;;1.75;;
28714;SDS011;15886;49.170;14.572;2023-07-02T02:52:37;2.47;;;1.40;;
28714;SDS011;15886;49.170;14.572;2023-07-02T02:55:05;2.22;;;1.40;;
28714;SDS011;15886;49.170;14.572;2023-07-02T02:57:34;4.15;;;1.42;;
28714;SDS011;15886;49.170;14.572;2023-07-02T03:00:03;6.97;;;1.77;;
28714;SDS011;15886;49.170;14.572;2023-07-02T03:02:32;2.13;;;1.40;;
28714;SDS011;15886;49.170;14.572;2023-07-02T03:05:00;1.70;;;1.13;;
28714;SDS011;15886;49.170;14.572;2023-07-02T03:07:30;4.43;;;1.20;;
28714;SDS011;15886;49.170;14.572;2023-07-02T03:09:59;1.48;;;0.90;;
28714;SDS011;15886;49.170;14.572;2023-07-02T03:12:27;3.20;;;1.98;;
28714;SDS011;15886;49.170;14.572;2023-07-02T03:14:55;2.55;;;1.40;;
28714;SDS011;15886;49.170;14.572;2023-07-02T03:17:24;1.48;;;1.20;;
28714;SDS011;15886;49.170;14.572;2023-07-02T03:19:52;3.38;;;1.45;;
28714;SDS011;15886;49.170;14.572;2023-07-02T03:22:23;1.67;;;0.93;;
28714;SDS011;15886;49.170;14.572;2023-07-02T03:24:52;4.10;;;1.30;;
28714;SDS011;15886;49.170;14.572;2023-07-02T03:27:21;1.95;;;1.30;;
28714;SDS011;15886;49.170;14.572;2023-07-02T03:29:52;1.60;;;1.38;;
28714;SDS011;15886;49.170;14.572;2023-07-02T03:32:20;1.17;;;1.00;;
28714;SDS011;15886;49.170;14.572;2023-07-02T03:34:49;1.70;;;1.30;;
28714;SDS011;15886;49.170;14.572;2023-07-02T03:37:19;2.95;;;1.40;;
28714;SDS011;15886;49.170;14.572;2023-07-02T03:39:47;2.33;;;1.10;;
28714;SDS011;15886;49.170;14.572;2023-07-02T03:42:17;3.45;;;1.67;;
28714;SDS011;15886;49.170;14.572;2023-07-02T03:44:47;1.90;;;1.30;;
28714;SDS011;15886;49.170;14.572;2023-07-02T03:47:17;1.55;;;1.23;;
28714;SDS011;15886;49.170;14.572;2023-07-02T03:49:47;1.83;;;1.25;;
28714;SDS011;15886;49.170;14.572;2023-07-02T03:52:15;5.25;;;1.58;;
28714;SDS011;15886;49.170;14.572;2023-07-02T03:54:44;2.78;;;1.05;;
28714;SDS011;15886;49.170;14.572;2023-07-02T03:57:12;2.58;;;1.13;;
28714;SDS011;15886;49.170;14.572;2023-07-02T03:59:43;1.63;;;1.10;;
28714;SDS011;15886;49.170;14.572;2023-07-02T04:02:13;1.83;;;1.13;;
28714;SDS011;15886;49.170;14.572;2023-07-02T04:04:41;3.72;;;0.98;;
28714;SDS011;15886;49.170;14.572;2023-07-02T04:07:09;1.60;;;0.98;;
28714;SDS011;15886;49.170;14.572;2023-07-02T04:09:38;1.73;;;1.35;;
28714;SDS011;15886;49.170;14.572;2023-07-02T04:12:06;1.80;;;1.17;;
28714;SDS011;15886;49.170;14.572;2023-07-02T04:14:34;1.35;;;0.95;;
28714;SDS011;15886;49.170;14.572;2023-07-02T04:17:03;1.58;;;1.35;;
28714;SDS011;15886;49.170;14.572;2023-07-02T04:19:31;1.92;;;1.10;;
28714;SDS011;15886;49.170;14.572;2023-07-02T04:21:59;1.38;;;1.02;;
28714;SDS011;15886;49.170;14.572;2023-07-02T04:24:28;1.30;;;1.17;;
28714;SDS011;15886;49.170;14.572;2023-07-02T04:26:56;1.17;;;1.00;;
28714;SDS011;15886;49.170;14.572;2023-07-02T04:29:31;1.45;;;1.15;;
28714;SDS011;15886;49.170;14.572;2023-07-02T04:31:59;0.88;;;0.80;;
28714;SDS011;15886;49.170;14.572;2023-07-02T04:34:28;1.40;;;1.30;;
28714;SDS011;15886;49.170;14.572;2023-07-02T04:36:59;2.30;;;0.90;;
28714;SDS011;15886;49.170;14.572;2023-07-02T04:39:27;1.35;;;1.10;;
28714;SDS011;15886;49.170;14.572;2023-07-02T04:41:55;2.58;;;1.10;;
28714;SDS011;15886;49.170;14.572;2023-07-02T04:44:25;2.92;;;1.30;;
28714;SDS011;15886;49.170;14.572;2023-07-02T04:47:00;1.33;;;1.10;;
28714;SDS011;15886;49.170;14.572;2023-07-02T04:49:28;1.40;;;1.30;;
28714;SDS011;15886;49.170;14.572;2023-07-02T04:51:56;1.58;;;1.27;;
28714;SDS011;15886;49.170;14.572;2023-07-02T04:54:25;3.20;;;1.25;;
28714;SDS011;15886;49.170;14.572;2023-07-02T04:56:53;1.60;;;1.40;;
28714;SDS011;15886;49.170;14.572;2023-07-02T04:59:21;1.45;;;1.20;;
28714;SDS011;15886;49.170;14.572;2023-07-02T05:01:50;3.28;;;1.23;;
28714;SDS011;15886;49.170;14.572;2023-07-02T05:04:19;2.03;;;1.33;;
28714;SDS011;15886;49.170;14.572;2023-07-02T05:06:48;1.50;;;1.17;;
28714;SDS011;15886;49.170;14.572;2023-07-02T05:09:18;1.60;;;1.50;;
28714;SDS011;15886;49.170;14.572;2023-07-02T05:11:46;1.88;;;1.42;;
28714;SDS011;15886;49.170;14.572;2023-07-02T05:14:14;3.10;;;1.40;;
28714;SDS011;15886;49.170;14.572;2023-07-02T05:16:42;2.33;;;2.08;;
28714;SDS011;15886;49.170;14.572;2023-07-02T05:19:10;1.75;;;1.23;;
28714;SDS011;15886;49.170;14.572;2023-07-02T05:21:40;2.03;;;1.60;;
28714;SDS011;15886;49.170;14.572;2023-07-02T05:24:08;2.05;;;1.60;;
28714;SDS011;15886;49.170;14.572;2023-07-02T05:26:37;1.70;;;1.30;;
28714;SDS011;15886;49.170;14.572;2023-07-02T05:29:05;1.85;;;1.45;;
28714;SDS011;15886;49.170;14.572;2023-07-02T05:31:36;2.83;;;1.58;;
28714;SDS011;15886;49.170;14.572;2023-07-02T05:34:05;2.70;;;1.25;;
28714;SDS011;15886;49.170;14.572;2023-07-02T05:36:34;3.92;;;1.20;;
28714;SDS011;15886;49.170;14.572;2023-07-02T05:39:04;4.45;;;2.50;;
28714;SDS011;15886;49.170;14.572;2023-07-02T05:41:34;1.67;;;1.35;;
28714;SDS011;15886;49.170;14.572;2023-07-02T05:44:04;2.75;;;1.48;;
28714;SDS011;15886;49.170;14.572;2023-07-02T05:46:32;2.00;;;1.70;;
28714;SDS011;15886;49.170;14.572;2023-07-02T05:49:00;2.13;;;1.60;;
28714;SDS011;15886;49.170;14.572;2023-07-02T05:51:30;2.45;;;1.30;;
28714;SDS011;15886;49.170;14.572;2023-07-02T05:54:01;1.88;;;1.42;;
28714;SDS011;15886;49.170;14.572;2023-07-02T05:56:29;1.90;;;1.55;;
28714;SDS011;15886;49.170;14.572;2023-07-02T05:59:00;2.35;;;1.40;;
28714;SDS011;15886;49.170;14.572;2023-07-02T06:01:28;1.38;;;1.27;;
28714;SDS011;15886;49.170;14.572;2023-07-02T06:03:58;1.92;;;1.42;;
28714;SDS011;15886;49.170;14.572;2023-07-02T06:06:27;2.58;;;1.35;;
28714;SDS011;15886;49.170;14.572;2023-07-02T06:08:55;2.38;;;1.60;;
28714;SDS011;15886;49.170;14.572;2023-07-02T06:11:24;5.05;;;1.70;;
28714;SDS011;15886;49.170;14.572;2023-07-02T06:13:52;3.53;;;1.70;;
28714;SDS011;15886;49.170;14.572;2023-07-02T06:16:21;2.40;;;1.52;;
28714;SDS011;15886;49.170;14.572;2023-07-02T06:18:50;2.67;;;1.70;;
28714;SDS011;15886;49.170;14.572;2023-07-02T06:21:18;2.28;;;1.67;;
28714;SDS011;15886;49.170;14.572;2023-07-02T06:23:47;3.45;;;2.03;;
28714;SDS011;15886;49.170;14.572;2023-07-02T06:26:16;2.08;;;1.50;;
28714;SDS011;15886;49.170;14.572;2023-07-02T06:28:44;3.65;;;1.70;;
28714;SDS011;15886;49.170;14.572;2023-07-02T06:31:12;2.70;;;2.30;;
28714;SDS011;15886;49.170;14.572;2023-07-02T06:33:41;2.67;;;2.00;;
28714;SDS011;15886;49.170;14.572;2023-07-02T06:36:10;2.70;;;1.88;;
28714;SDS011;15886;49.170;14.572;2023-07-02T06:38:40;4.55;;;2.40;;
28714;SDS011;15886;49.170;14.572;2023-07-02T06:41:08;2.72;;;1.83;;
28714;SDS011;15886;49.170;14.572;2023-07-02T06:43:37;2.63;;;2.03;;
28714;SDS011;15886;49.170;14.572;2023-07-02T06:46:05;5.10;;;1.95;;
28714;SDS011;15886;49.170;14.572;2023-07-02T06:48:33;3.20;;;2.33;;
28714;SDS011;15886;49.170;14.572;2023-07-02T06:51:01;2.63;;;1.98;;
28714;SDS011;15886;49.170;14.572;2023-07-02T06:53:29;2.72;;;1.83;;
28714;SDS011;15886;49.170;14.572;2023-07-02T06:55:58;5.80;;;2.40;;
28714;SDS011;15886;49.170;14.572;2023-07-02T06:58:27;4.43;;;2.75;;
28714;SDS011;15886;49.170;14.572;2023-07-02T07:00:55;2.70;;;2.33;;
28714;SDS011;15886;49.170;14.572;2023-07-02T07:03:23;3.25;;;1.85;;
28714;SDS011;15886;49.170;14.572;2023-07-02T07:05:52;2.28;;;1.90;;
28714;SDS011;15886;49.170;14.572;2023-07-02T07:08:20;2.67;;;1.92;;
28714;SDS011;15886;49.170;14.572;2023-07-02T07:10:49;2.78;;;1.65;;
28714;SDS011;15886;49.170;14.572;2023-07-02T07:13:18;2.58;;;1.83;;
28714;SDS011;15886;49.170;14.572;2023-07-02T07:15:46;2.38;;;1.80;;
28714;SDS011;15886;49.170;14.572;2023-07-02T07:18:14;2.38;;;1.80;;
28714;SDS011;15886;49.170;14.572;2023-07-02T07:20:42;13.63;;;2.08;;
28714;SDS011;15886;49.170;14.572;2023-07-02T07:23:10;4.32;;;2.17;;
28714;SDS011;15886;49.170;14.572;2023-07-02T07:25:38;3.50;;;2.17;;
28714;SDS011;15886;49.170;14.572;2023-07-02T07:28:07;3.80;;;2.40;;
28714;SDS011;15886;49.170;14.572;2023-07-02T07:30:39;3.95;;;2.30;;
28714;SDS011;15886;49.170;14.572;2023-07-02T07:33:07;2.53;;;1.90;;
28714;SDS011;15886;49.170;14.572;2023-07-02T07:35:35;5.32;;;2.22;;
28714;SDS011;15886;49.170;14.572;2023-07-02T07:38:03;3.30;;;2.10;;
28714;SDS011;15886;49.170;14.572;2023-07-02T07:40:31;4.32;;;2.28;;
28714;SDS011;15886;49.170;14.572;2023-07-02T07:42:59;3.65;;;2.33;;
28714;SDS011;15886;49.170;14.572;2023-07-02T07:45:28;2.55;;;1.75;;
28714;SDS011;15886;49.170;14.572;2023-07-02T07:47:56;9.77;;;2.38;;
28714;SDS011;15886;49.170;14.572;2023-07-02T07:50:24;3.67;;;2.50;;
28714;SDS011;15886;49.170;14.572;2023-07-02T07:52:52;3.55;;;2.05;;
28714;SDS011;15886;49.170;14.572;2023-07-02T07:55:21;4.18;;;2.45;;
28714;SDS011;15886;49.170;14.572;2023-07-02T07:57:49;3.30;;;2.10;;
28714;SDS011;15886;49.170;14.572;2023-07-02T08:00:18;4.60;;;1.98;;
28714;SDS011;15886;49.170;14.572;2023-07-02T08:02:46;3.03;;;1.95;;
28714;SDS011;15886;49.170;14.572;2023-07-02T08:05:15;3.13;;;2.00;;
28714;SDS011;15886;49.170;14.572;2023-07-02T08:07:43;3.30;;;1.67;;
28714;SDS011;15886;49.170;14.572;2023-07-02T08:10:11;3.70;;;1.92;;
28714;SDS011;15886;49.170;14.572;2023-07-02T08:12:40;10.45;;;2.38;;
28714;SDS011;15886;49.170;14.572;2023-07-02T08:15:14;4.88;;;2.00;;
28714;SDS011;15886;49.170;14.572;2023-07-02T08:19:00;5.50;;;2.35;;
28714;SDS011;15886;49.170;14.572;2023-07-02T08:22:19;2.97;;;1.98;;
28714;SDS011;15886;49.170;14.572;2023-07-02T08:25:15;2.72;;;1.63;;
28714;SDS011;15886;49.170;14.572;2023-07-02T08:31:45;2.95;;;1.65;;
28714;SDS011;15886;49.170;14.572;2023-07-02T08:34:13;2.45;;;1.83;;
28714;SDS011;15886;49.170;14.572;2023-07-02T08:36:41;2.55;;;1.90;;
28714;SDS011;15886;49.170;14.572;2023-07-02T08:39:10;7.28;;;1.75;;
28714;SDS011;15886;49.170;14.572;2023-07-02T08:41:45;9.80;;;2.10;;
28714;SDS011;15886;49.170;14.572;2023-07-02T08:44:14;2.47;;;1.70;;
28714;SDS011;15886;49.170;14.572;2023-07-02T08:46:42;5.43;;;1.65;;
28714;SDS011;15886;49.170;14.572;2023-07-02T08:49:11;2.80;;;1.90;;
28714;SDS011;15886;49.170;14.572;2023-07-02T08:51:39;2.97;;;1.60;;
28714;SDS011;15886;49.170;14.572;2023-07-02T08:54:07;2.42;;;1.52;;
28714;SDS011;15886;49.170;14.572;2023-07-02T08:56:38;3.22;;;1.73;;
28714;SDS011;15886;49.170;14.572;2023-07-02T08:59:07;8.98;;;1.95;;
28714;SDS011;15886;49.170;14.572;2023-07-02T09:01:45;1.85;;;1.50;;
28714;SDS011;15886;49.170;14.572;2023-07-02T09:07:02;4.55;;;1.80;;
28714;SDS011;15886;49.170;14.572;2023-07-02T09:09:30;2.92;;;1.50;;
28714;SDS011;15886;49.170;14.572;2023-07-02T09:11:59;5.45;;;1.90;;
28714;SDS011;15886;49.170;14.572;2023-07-02T09:14:30;4.43;;;1.42;;
28714;SDS011;15886;49.170;14.572;2023-07-02T09:17:10;2.58;;;1.67;;
28714;SDS011;15886;49.170;14.572;2023-07-02T09:19:49;2.05;;;1.40;;
28714;SDS011;15886;49.170;14.572;2023-07-02T09:22:24;2.40;;;1.52;;
28714;SDS011;15886;49.170;14.572;2023-07-02T09:24:57;2.15;;;1.80;;
28714;SDS011;15886;49.170;14.572;2023-07-02T09:27:41;3.60;;;1.67;;
28714;SDS011;15886;49.170;14.572;2023-07-02T09:30:33;3.28;;;1.42;;
28714;SDS011;15886;49.170;14.572;2023-07-02T09:40:50;2.50;;;1.70;;
28714;SDS011;15886;49.170;14.572;2023-07-02T09:43:19;3.30;;;1.77;;
28714;SDS011;15886;49.170;14.572;2023-07-02T09:45:49;6.30;;;2.65;;
28714;SDS011;15886;49.170;14.572;2023-07-02T09:48:20;4.15;;;2.25;;
28714;SDS011;15886;49.170;14.572;2023-07-02T09:50:54;4.57;;;1.97;;
28714;SDS011;15886;49.170;14.572;2023-07-02T09:53:29;4.15;;;2.22;;
28714;SDS011;15886;49.170;14.572;2023-07-02T09:55:59;3.53;;;1.98;;
28714;SDS011;15886;49.170;14.572;2023-07-02T09:58:31;3.38;;;1.88;;
28714;SDS011;15886;49.170;14.572;2023-07-02T10:01:04;6.00;;;2.10;;
28714;SDS011;15886;49.170;14.572;2023-07-02T10:03:34;6.90;;;2.53;;
28714;SDS011;15886;49.170;14.572;2023-07-02T10:06:05;5.93;;;2.10;;
28714;SDS011;15886;49.170;14.572;2023-07-02T10:08:36;3.75;;;1.90;;
28714;SDS011;15886;49.170;14.572;2023-07-02T10:11:08;4.72;;;2.50;;
28714;SDS011;15886;49.170;14.572;2023-07-02T10:13:39;4.32;;;2.60;;
28714;SDS011;15886;49.170;14.572;2023-07-02T10:16:12;7.80;;;2.60;;
28714;SDS011;15886;49.170;14.572;2023-07-02T10:18:42;4.40;;;2.10;;
28714;SDS011;15886;49.170;14.572;2023-07-02T10:21:17;6.05;;;2.70;;
28714;SDS011;15886;49.170;14.572;2023-07-02T10:23:47;5.90;;;2.60;;
28714;SDS011;15886;49.170;14.572;2023-07-02T10:26:18;5.03;;;2.45;;
28714;SDS011;15886;49.170;14.572;2023-07-02T10:28:57;4.22;;;2.80;;
28714;SDS011;15886;49.170;14.572;2023-07-02T10:31:27;7.97;;;2.90;;
28714;SDS011;15886;49.170;14.572;2023-07-02T10:34:01;6.72;;;3.20;;
28714;SDS011;15886;49.170;14.572;2023-07-02T10:42:49;4.88;;;2.83;;
28714;SDS011;15886;49.170;14.572;2023-07-02T10:45:30;4.68;;;2.88;;
28714;SDS011;15886;49.170;14.572;2023-07-02T10:48:13;7.28;;;2.60;;
28714;SDS011;15886;49.170;14.572;2023-07-02T10:50:49;11.90;;;2.97;;
28714;SDS011;15886;49.170;14.572;2023-07-02T10:53:18;5.75;;;2.50;;
28714;SDS011;15886;49.170;14.572;2023-07-02T10:55:56;7.90;;;2.55;;
28714;SDS011;15886;49.170;14.572;2023-07-02T10:58:26;5.53;;;2.75;;
28714;SDS011;15886;49.170;14.572;2023-07-02T11:00:55;10.27;;;3.15;;
28714;SDS011;15886;49.170;14.572;2023-07-02T11:03:26;5.25;;;2.88;;
28714;SDS011;15886;49.170;14.572;2023-07-02T11:05:58;5.85;;;3.10;;
28714;SDS011;15886;49.170;14.572;2023-07-02T11:08:40;7.05;;;3.03;;
28714;SDS011;15886;49.170;14.572;2023-07-02T11:11:20;5.30;;;3.05;;
28714;SDS011;15886;49.170;14.572;2023-07-02T11:13:55;9.73;;;3.40;;
28714;SDS011;15886;49.170;14.572;2023-07-02T11:16:55;6.97;;;3.83;;
28714;SDS011;15886;49.170;14.572;2023-07-02T11:19:24;8.43;;;3.40;;
28714;SDS011;15886;49.170;14.572;2023-07-02T11:21:56;7.63;;;3.40;;
28714;SDS011;15886;49.170;14.572;2023-07-02T11:24:32;7.43;;;3.40;;
28714;SDS011;15886;49.170;14.572;2023-07-02T11:29:32;6.72;;;3.35;;
28714;SDS011;15886;49.170;14.572;2023-07-02T11:32:05;10.23;;;4.15;;
28714;SDS011;15886;49.170;14.572;2023-07-02T11:34:38;6.28;;;3.60;;
28714;SDS011;15886;49.170;14.572;2023-07-02T11:37:11;9.85;;;3.95;;
28714;SDS011;15886;49.170;14.572;2023-07-02T11:39:43;9.88;;;4.05;;
28714;SDS011;15886;49.170;14.572;2023-07-02T11:42:14;7.95;;;3.72;;
28714;SDS011;15886;49.170;14.572;2023-07-02T11:44:47;15.10;;;4.60;;
28714;SDS011;15886;49.170;14.572;2023-07-02T11:47:48;8.65;;;4.15;;
28714;SDS011;15886;49.170;14.572;2023-07-02T11:51:01;6.45;;;3.90;;
28714;SDS011;15886;49.170;14.572;2023-07-02T11:54:04;9.35;;;4.30;;
28714;SDS011;15886;49.170;14.572;2023-07-02T11:56:35;6.55;;;4.05;;
28714;SDS011;15886;49.170;14.572;2023-07-02T11:59:12;8.75;;;4.13;;
28714;SDS011;15886;49.170;14.572;2023-07-02T12:01:43;6.47;;;3.80;;
28714;SDS011;15886;49.170;14.572;2023-07-02T12:04:13;7.13;;;3.90;;
28714;SDS011;15886;49.170;14.572;2023-07-02T12:09:50;8.93;;;4.40;;
28714;SDS011;15886;49.170;14.572;2023-07-02T12:12:21;9.25;;;4.30;;
28714;SDS011;15886;49.170;14.572;2023-07-02T12:14:50;7.13;;;4.20;;
28714;SDS011;15886;49.170;14.572;2023-07-02T12:17:21;10.77;;;5.30;;
28714;SDS011;15886;49.170;14.572;2023-07-02T12:19:54;9.40;;;4.60;;
28714;SDS011;15886;49.170;14.572;2023-07-02T12:22:22;8.52;;;4.20;;
28714;SDS011;15886;49.170;14.572;2023-07-02T12:24:52;10.68;;;5.15;;
28714;SDS011;15886;49.170;14.572;2023-07-02T12:27:25;14.15;;;4.90;;
28714;SDS011;15886;49.170;14.572;2023-07-02T12:29:55;7.47;;;4.40;;
28714;SDS011;15886;49.170;14.572;2023-07-02T12:32:24;13.20;;;5.57;;
28714;SDS011;15886;49.170;14.572;2023-07-02T12:34:53;10.93;;;4.45;;
28714;SDS011;15886;49.170;14.572;2023-07-02T12:37:24;10.50;;;5.00;;
28714;SDS011;15886;49.170;14.572;2023-07-02T12:39:54;10.75;;;4.45;;
28714;SDS011;15886;49.170;14.572;2023-07-02T12:42:26;9.65;;;5.03;;
28714;SDS011;15886;49.170;14.572;2023-07-02T12:45:00;9.23;;;4.45;;
28714;SDS011;15886;49.170;14.572;2023-07-02T12:47:30;8.93;;;4.13;;
28714;SDS011;15886;49.170;14.572;2023-07-02T12:49:59;12.65;;;5.10;;
28714;SDS011;15886;49.170;14.572;2023-07-02T12:52:39;9.45;;;4.05;;
28714;SDS011;15886;49.170;14.572;2023-07-02T12:55:12;11.05;;;4.63;;
28714;SDS011;15886;49.170;14.572;2023-07-02T12:57:47;9.85;;;4.55;;
28714;SDS011;15886;49.170;14.572;2023-07-02T13:00:37;9.73;;;5.00;;
28714;SDS011;15886;49.170;14.572;2023-07-02T13:03:09;10.38;;;5.10;;
28714;SDS011;15886;49.170;14.572;2023-07-02T13:05:40;9.95;;;5.25;;
28714;SDS011;15886;49.170;14.572;2023-07-02T13:08:10;15.50;;;6.13;;
28714;SDS011;15886;49.170;14.572;2023-07-02T13:10:40;10.55;;;4.63;;
28714;SDS011;15886;49.170;14.572;2023-07-02T13:13:15;10.35;;;5.03;;
28714;SDS011;15886;49.170;14.572;2023-07-02T13:15:55;10.77;;;5.15;;
28714;SDS011;15886;49.170;14.572;2023-07-02T13:18:28;8.00;;;5.03;;
28714;SDS011;15886;49.170;14.572;2023-07-02T13:21:01;10.80;;;5.80;;
28714;SDS011;15886;49.170;14.572;2023-07-02T13:23:32;11.40;;;5.25;;
28714;SDS011;15886;49.170;14.572;2023-07-02T13:26:01;14.32;;;4.82;;
28714;SDS011;15886;49.170;14.572;2023-07-02T13:28:31;9.52;;;5.28;;
28714;SDS011;15886;49.170;14.572;2023-07-02T13:31:04;12.82;;;5.40;;
28714;SDS011;15886;49.170;14.572;2023-07-02T13:33:36;10.68;;;4.93;;
28714;SDS011;15886;49.170;14.572;2023-07-02T13:36:06;11.68;;;5.57;;
28714;SDS011;15886;49.170;14.572;2023-07-02T13:38:36;10.73;;;4.95;;
28714;SDS011;15886;49.170;14.572;2023-07-02T13:41:06;10.50;;;5.18;;
28714;SDS011;15886;49.170;14.572;2023-07-02T13:43:36;12.18;;;5.88;;
28714;SDS011;15886;49.170;14.572;2023-07-02T13:46:05;11.98;;;6.05;;
28714;SDS011;15886;49.170;14.572;2023-07-02T13:48:38;12.38;;;5.82;;
28714;SDS011;15886;49.170;14.572;2023-07-02T13:51:09;12.43;;;4.78;;
28714;SDS011;15886;49.170;14.572;2023-07-02T13:53:40;7.97;;;5.15;;
28714;SDS011;15886;49.170;14.572;2023-07-02T13:56:11;11.25;;;5.57;;
28714;SDS011;15886;49.170;14.572;2023-07-02T14:01:25;13.43;;;6.35;;
28714;SDS011;15886;49.170;14.572;2023-07-02T14:03:55;12.98;;;5.85;;
28714;SDS011;15886;49.170;14.572;2023-07-02T14:06:25;11.82;;;5.43;;
28714;SDS011;15886;49.170;14.572;2023-07-02T14:08:57;11.35;;;5.45;;
28714;SDS011;15886;49.170;14.572;2023-07-02T14:11:34;9.70;;;4.78;;
28714;SDS011;15886;49.170;14.572;2023-07-02T14:14:08;10.73;;;5.90;;
28714;SDS011;15886;49.170;14.572;2023-07-02T14:16:53;11.30;;;5.40;;
28714;SDS011;15886;49.170;14.572;2023-07-02T14:19:33;10.40;;;5.20;;
28714;SDS011;15886;49.170;14.572;2023-07-02T14:25:15;8.68;;;5.28;;
28714;SDS011;15886;49.170;14.572;2023-07-02T14:27:53;14.52;;;5.85;;
28714;SDS011;15886;49.170;14.572;2023-07-02T14:30:23;9.40;;;5.68;;
28714;SDS011;15886;49.170;14.572;2023-07-02T14:32:52;11.93;;;6.65;;
28714;SDS011;15886;49.170;14.572;2023-07-02T14:35:20;10.90;;;5.65;;
28714;SDS011;15886;49.170;14.572;2023-07-02T14:37:58;11.48;;;5.35;;
28714;SDS011;15886;49.170;14.572;2023-07-02T14:40:44;9.70;;;5.18;;
28714;SDS011;15886;49.170;14.572;2023-07-02T14:43:13;17.67;;;7.10;;
28714;SDS011;15886;49.170;14.572;2023-07-02T14:45:50;15.77;;;6.97;;
28714;SDS011;15886;49.170;14.572;2023-07-02T14:48:19;11.05;;;5.78;;
28714;SDS011;15886;49.170;14.572;2023-07-02T14:50:51;11.35;;;5.63;;
28714;SDS011;15886;49.170;14.572;2023-07-02T14:53:31;12.63;;;5.50;;
28714;SDS011;15886;49.170;14.572;2023-07-02T14:56:03;13.50;;;6.10;;
28714;SDS011;15886;49.170;14.572;2023-07-02T14:58:34;12.02;;;6.05;;
28714;SDS011;15886;49.170;14.572;2023-07-02T15:01:03;11.40;;;5.85;;
28714;SDS011;15886;49.170;14.572;2023-07-02T15:03:32;9.65;;;5.22;;
28714;SDS011;15886;49.170;14.572;2023-07-02T15:06:11;10.35;;;5.75;;
28714;SDS011;15886;49.170;14.572;2023-07-02T15:08:42;11.40;;;5.35;;
28714;SDS011;15886;49.170;14.572;2023-07-02T15:11:15;13.43;;;5.40;;
28714;SDS011;15886;49.170;14.572;2023-07-02T15:13:48;12.10;;;5.53;;
28714;SDS011;15886;49.170;14.572;2023-07-02T15:16:19;14.98;;;5.45;;
28714;SDS011;15886;49.170;14.572;2023-07-02T15:18:52;19.52;;;5.88;;
28714;SDS011;15886;49.170;14.572;2023-07-02T15:21:21;11.18;;;5.82;;
28714;SDS011;15886;49.170;14.572;2023-07-02T15:23:51;11.27;;;5.80;;
28714;SDS011;15886;49.170;14.572;2023-07-02T15:26:20;7.82;;;5.00;;
28714;SDS011;15886;49.170;14.572;2023-07-02T15:28:49;10.32;;;4.78;;